createdAt,value
2022-08-27T15:34:17.377Z,10.45
2022-08-27T15:39:49.250Z,8.02
2022-08-27T15:45:20.759Z,8.77
2022-08-27T15:51:09.682Z,8.10
2022-08-27T15:56:40.931Z,8.88
2022-08-27T16:02:19.252Z,9.93
2022-08-27T16:07:52.251Z,9.43
2022-08-27T16:13:26.330Z,8.30
2022-08-27T16:19:03.236Z,9.73
2022-08-27T16:24:36.209Z,7.78
2022-08-27T16:30:09.151Z,7.55
2022-08-27T16:35:42.474Z,10.07
2022-08-27T16:41:14.719Z,8.43
2022-08-27T16:46:49.157Z,8.33
2022-08-27T16:52:24.601Z,10.52
2022-08-27T16:57:58.504Z,7.07
2022-08-27T17:03:37.754Z,6.97
2022-08-27T17:09:23.709Z,9.70
2022-08-27T17:14:57.218Z,10.35
2022-08-27T17:20:31.106Z,9.45
2022-08-27T17:26:04.212Z,7.30
2022-08-27T17:37:09.893Z,6.68
2022-08-27T17:42:41.583Z,6.72
2022-08-27T17:48:19.151Z,7.93
2022-08-27T17:53:57.221Z,9.30
2022-08-27T17:59:33.483Z,9.53
2022-08-27T18:05:06.243Z,7.38
2022-08-27T18:10:38.262Z,7.57
2022-08-27T18:16:09.600Z,8.73
2022-08-27T18:21:46.762Z,7.85
2022-08-27T18:27:18.867Z,8.52
2022-08-27T18:32:50.598Z,7.20
2022-08-27T18:38:23.839Z,6.73
2022-08-27T18:43:55.706Z,8.55
2022-08-27T18:49:28.382Z,9.17
2022-08-27T18:55:01.010Z,12.52
2022-08-27T19:00:32.713Z,8.00
2022-08-27T19:06:08.920Z,8.07
2022-08-27T19:11:42.021Z,9.20
2022-08-27T19:17:23.354Z,6.10
2022-08-27T19:22:54.940Z,8.30
2022-08-27T19:28:32.238Z,7.35
2022-08-27T19:34:06.387Z,10.45
2022-08-27T19:39:38.711Z,9.80
2022-08-27T19:45:10.904Z,9.65
2022-08-27T19:50:43.091Z,7.20
2022-08-27T19:56:15.549Z,9.90
2022-08-27T20:01:47.117Z,8.50
2022-08-27T20:07:19.574Z,8.63
2022-08-27T20:12:50.983Z,8.25
2022-08-27T20:18:22.398Z,8.23
2022-08-27T20:23:54.023Z,6.70
2022-08-27T20:29:32.737Z,7.38
2022-08-27T20:35:07.482Z,6.68
2022-08-27T20:40:39.521Z,8.13
2022-08-27T20:46:11.001Z,5.72
2022-08-27T20:52:02.307Z,10.20
2022-08-27T20:57:36.186Z,6.63
2022-08-27T21:03:11.718Z,6.40
2022-08-27T21:08:43.269Z,5.20
2022-08-27T21:14:15.640Z,4.90
2022-08-27T21:19:48.571Z,6.05
2022-08-27T21:25:24.841Z,4.90
2022-08-27T21:30:57.213Z,4.78
2022-08-27T21:36:29.861Z,8.32
2022-08-27T21:42:03.613Z,4.97
2022-08-27T21:47:36.929Z,4.90
2022-08-27T21:53:09.223Z,4.28
2022-08-27T21:58:41.114Z,4.88
2022-08-27T22:04:13.181Z,8.68
2022-08-27T22:09:44.260Z,5.10
2022-08-27T22:15:15.300Z,4.32
2022-08-27T22:20:46.538Z,5.20
2022-08-27T22:26:17.745Z,6.18
2022-08-27T22:31:49.076Z,4.53
2022-08-27T22:37:20.494Z,4.43
2022-08-27T22:42:52.050Z,5.05
2022-08-27T22:48:23.958Z,3.85
2022-08-27T22:53:55.208Z,4.10
2022-08-27T22:59:25.986Z,5.78
2022-08-27T23:04:56.903Z,4.10
2022-08-27T23:10:29.087Z,4.27
2022-08-27T23:16:02.083Z,5.15
2022-08-27T23:21:33.355Z,4.70
2022-08-27T23:27:23.086Z,3.80
2022-08-27T23:32:55.575Z,3.78
2022-08-27T23:38:26.920Z,3.88
2022-08-27T23:43:58.232Z,3.83
2022-08-27T23:49:30.165Z,4.47
2022-08-27T23:55:01.996Z,3.77
